首页
METAR-TAF:

METAR-TAF

机场 :

Tabatinga, 亚马孙, 巴西

纬度: 03-40S, 经度: 069-40W, 海拔: 85米

当前天气观测

该预报发布于3小时和43分钟前的23:20 UTC
风速3节,风向东转东北
温度 24°C
湿度 94%
气压 1011 hPa
能见度10公里或以上
少量云层高于1500英尺
多云层高于10000英尺

METAR: SBTT 242320Z 07003KT 9999 FEW015 BKN100 24/23 Q1011

时间: 23:03 (03:03 UTC)

预报

该预报发布于5小时和28分钟前的21:35 UTC
预报有效从25日的 00点(UTC)到 25日的 24点(UTC)
风速5节,风向北转西北
能見度: 8000
散云层高于2000英尺
少量云层高于3300英尺, 塔状积云.
成为
从 25日的 10点(UTC)到 25日的 12点(UTC)
风速5节,风向东转东南
能見度: 5000
多云层高于1000英尺
毛毛雨, 轻雾
成为
从 25日的 13点(UTC)到 25日的 14点(UTC)
能見度: 8000
散云层高于1500英尺
多云层高于3000英尺
成为
从 25日的 16点(UTC)到 25日的 18点(UTC)
多云层高于2000英尺
少量云层高于3300英尺, 塔状积云.
成为
从 25日的 21点(UTC)到 25日的 23点(UTC)
风速6节,风向
能見度: 2500
多云层高于1400英尺
少量云层高于2300英尺, 积雨云.
雷暴, 雨

TAF: SBTT 242135Z 2500/2524 33005KT 8000 SCT020 FEW033TCU TN24/2511Z TX29/2519Z BECMG 2510/2512 12005KT 5000 DZ BR BKN010 BECMG 2513/2514 8000 NSW SCT015 BKN030 BECMG 2516/2518 BKN020 FEW033TCU BECMG 2521/2523 18006KT 2500 TSRA BKN014 FEW023CB RMK PGB

超过4000个机场的气象观测和天气预报(METAR&TAF报告)。

可查询的气象台以黄色和红色小点在地图上表示。

将鼠标移到小点上方,可查看气象台名称。

然后点击查看天气观测和预报。

如需切换地图:点击带黑十字的绿色按钮放大地图;点击带横线的绿色按钮缩小地图;或者点击绿色箭头查看邻近地区的地图。


METAR-TAF: